sensor_id;sensor_type;location;lat;lon;timestamp;temperature;humidity
19039;DHT22;9652;49.014;12.052;2023-12-20T00:02:17;8.80;75.80
19039;DHT22;9652;49.014;12.052;2023-12-20T00:04:44;8.80;75.70
19039;DHT22;9652;49.014;12.052;2023-12-20T00:07:11;8.80;75.70
19039;DHT22;9652;49.014;12.052;2023-12-20T00:09:38;8.80;75.70
19039;DHT22;9652;49.014;12.052;2023-12-20T00:12:05;8.80;75.70
19039;DHT22;9652;49.014;12.052;2023-12-20T00:14:34;8.80;75.50
19039;DHT22;9652;49.014;12.052;2023-12-20T00:17:01;8.80;75.40
19039;DHT22;9652;49.014;12.052;2023-12-20T00:19:28;8.80;75.50
19039;DHT22;9652;49.014;12.052;2023-12-20T00:21:55;8.80;75.40
19039;DHT22;9652;49.014;12.052;2023-12-20T00:24:22;8.80;75.50
19039;DHT22;9652;49.014;12.052;2023-12-20T00:26:49;8.90;75.50
19039;DHT22;9652;49.014;12.052;2023-12-20T00:29:16;8.80;75.40
19039;DHT22;9652;49.014;12.052;2023-12-20T00:31:45;8.80;75.40
19039;DHT22;9652;49.014;12.052;2023-12-20T00:34:12;8.90;75.50
19039;DHT22;9652;49.014;12.052;2023-12-20T00:36:39;8.90;75.60
19039;DHT22;9652;49.014;12.052;2023-12-20T00:39:06;8.90;75.50
19039;DHT22;9652;49.014;12.052;2023-12-20T00:41:33;8.90;75.50
19039;DHT22;9652;49.014;12.052;2023-12-20T00:44:00;8.90;75.50
19039;DHT22;9652;49.014;12.052;2023-12-20T00:46:27;8.90;76.30
19039;DHT22;9652;49.014;12.052;2023-12-20T00:48:55;8.90;75.60
19039;DHT22;9652;49.014;12.052;2023-12-20T00:51:23;8.90;75.70
19039;DHT22;9652;49.014;12.052;2023-12-20T00:53:50;8.90;75.70
19039;DHT22;9652;49.014;12.052;2023-12-20T00:56:20;9.00;75.70
19039;DHT22;9652;49.014;12.052;2023-12-20T00:58:47;9.00;75.60
19039;DHT22;9652;49.014;12.052;2023-12-20T01:01:15;9.00;75.60
19039;DHT22;9652;49.014;12.052;2023-12-20T01:03:42;9.00;75.60
19039;DHT22;9652;49.014;12.052;2023-12-20T01:06:11;9.10;75.50
19039;DHT22;9652;49.014;12.052;2023-12-20T01:08:38;9.10;75.50
19039;DHT22;9652;49.014;12.052;2023-12-20T01:11:05;9.00;75.50
19039;DHT22;9652;49.014;12.052;2023-12-20T01:13:33;9.00;75.30
19039;DHT22;9652;49.014;12.052;2023-12-20T01:16:00;9.00;75.30
19039;DHT22;9652;49.014;12.052;2023-12-20T01:18:27;9.00;75.50
19039;DHT22;9652;49.014;12.052;2023-12-20T01:20:54;9.00;75.60
19039;DHT22;9652;49.014;12.052;2023-12-20T01:23:22;8.90;75.60
19039;DHT22;9652;49.014;12.052;2023-12-20T01:25:49;8.90;75.60
19039;DHT22;9652;49.014;12.052;2023-12-20T01:28:16;8.90;75.80
19039;DHT22;9652;49.014;12.052;2023-12-20T01:30:43;8.80;75.80
19039;DHT22;9652;49.014;12.052;2023-12-20T01:33:10;8.80;75.80
19039;DHT22;9652;49.014;12.052;2023-12-20T01:35:38;8.80;76.10
19039;DHT22;9652;49.014;12.052;2023-12-20T01:38:05;8.70;76.10
19039;DHT22;9652;49.014;12.052;2023-12-20T01:40:32;8.70;76.30
19039;DHT22;9652;49.014;12.052;2023-12-20T01:43:00;8.70;76.60
19039;DHT22;9652;49.014;12.052;2023-12-20T01:45:27;8.70;76.70
19039;DHT22;9652;49.014;12.052;2023-12-20T01:47:55;8.60;76.80
19039;DHT22;9652;49.014;12.052;2023-12-20T01:50:24;8.60;77.00
19039;DHT22;9652;49.014;12.052;2023-12-20T01:52:52;8.60;77.10
19039;DHT22;9652;49.014;12.052;2023-12-20T01:55:23;8.50;77.20
19039;DHT22;9652;49.014;12.052;2023-12-20T01:57:53;8.50;77.20
19039;DHT22;9652;49.014;12.052;2023-12-20T02:00:21;8.30;77.10
19039;DHT22;9652;49.014;12.052;2023-12-20T02:02:53;8.50;77.40
19039;DHT22;9652;49.014;12.052;2023-12-20T02:05:21;8.50;77.30
19039;DHT22;9652;49.014;12.052;2023-12-20T02:07:48;8.40;77.40
19039;DHT22;9652;49.014;12.052;2023-12-20T02:10:15;8.40;77.60
19039;DHT22;9652;49.014;12.052;2023-12-20T02:12:43;8.40;77.60
19039;DHT22;9652;49.014;12.052;2023-12-20T02:15:11;8.40;77.70
19039;DHT22;9652;49.014;12.052;2023-12-20T02:17:39;8.40;77.70
19039;DHT22;9652;49.014;12.052;2023-12-20T02:20:07;8.40;77.70
19039;DHT22;9652;49.014;12.052;2023-12-20T02:22:36;8.40;77.90
19039;DHT22;9652;49.014;12.052;2023-12-20T02:25:04;8.40;78.00
19039;DHT22;9652;49.014;12.052;2023-12-20T02:27:31;8.40;78.10
19039;DHT22;9652;49.014;12.052;2023-12-20T02:29:58;8.40;78.10
19039;DHT22;9652;49.014;12.052;2023-12-20T02:32:25;8.40;78.10
19039;DHT22;9652;49.014;12.052;2023-12-20T02:34:53;8.40;78.20
19039;DHT22;9652;49.014;12.052;2023-12-20T02:37:20;8.40;78.30
19039;DHT22;9652;49.014;12.052;2023-12-20T02:39:48;8.50;78.40
19039;DHT22;9652;49.014;12.052;2023-12-20T02:42:15;8.50;78.40
19039;DHT22;9652;49.014;12.052;2023-12-20T02:44:42;8.50;78.30
19039;DHT22;9652;49.014;12.052;2023-12-20T02:47:10;8.50;78.30
19039;DHT22;9652;49.014;12.052;2023-12-20T02:49:37;8.50;78.30
19039;DHT22;9652;49.014;12.052;2023-12-20T02:52:04;8.50;78.30
19039;DHT22;9652;49.014;12.052;2023-12-20T02:54:31;8.50;78.30
19039;DHT22;9652;49.014;12.052;2023-12-20T02:57:00;8.50;78.30
19039;DHT22;9652;49.014;12.052;2023-12-20T02:59:27;8.50;78.30
19039;DHT22;9652;49.014;12.052;2023-12-20T03:01:54;8.50;78.30
19039;DHT22;9652;49.014;12.052;2023-12-20T03:04:21;8.50;78.30
19039;DHT22;9652;49.014;12.052;2023-12-20T03:06:48;8.50;78.30
19039;DHT22;9652;49.014;12.052;2023-12-20T03:09:15;8.50;78.30
19039;DHT22;9652;49.014;12.052;2023-12-20T03:11:42;8.60;78.40
19039;DHT22;9652;49.014;12.052;2023-12-20T03:14:11;8.60;78.30
19039;DHT22;9652;49.014;12.052;2023-12-20T03:16:38;8.60;78.30
19039;DHT22;9652;49.014;12.052;2023-12-20T03:19:05;8.70;78.30
19039;DHT22;9652;49.014;12.052;2023-12-20T03:21:32;8.60;78.20
19039;DHT22;9652;49.014;12.052;2023-12-20T03:23:59;8.60;78.10
19039;DHT22;9652;49.014;12.052;2023-12-20T03:26:26;8.60;78.10
19039;DHT22;9652;49.014;12.052;2023-12-20T03:28:53;8.60;78.10
19039;DHT22;9652;49.014;12.052;2023-12-20T03:31:21;8.60;78.10
19039;DHT22;9652;49.014;12.052;2023-12-20T03:33:48;8.60;78.10
19039;DHT22;9652;49.014;12.052;2023-12-20T03:36:16;8.70;78.10
19039;DHT22;9652;49.014;12.052;2023-12-20T03:38:43;8.70;78.10
19039;DHT22;9652;49.014;12.052;2023-12-20T03:41:11;8.70;78.30
19039;DHT22;9652;49.014;12.052;2023-12-20T03:43:38;8.70;78.40
19039;DHT22;9652;49.014;12.052;2023-12-20T03:46:05;8.70;78.40
19039;DHT22;9652;49.014;12.052;2023-12-20T03:48:35;8.70;78.50
19039;DHT22;9652;49.014;12.052;2023-12-20T03:51:02;8.70;78.60
19039;DHT22;9652;49.014;12.052;2023-12-20T03:53:29;8.70;78.80
19039;DHT22;9652;49.014;12.052;2023-12-20T03:55:56;8.70;78.90
19039;DHT22;9652;49.014;12.052;2023-12-20T03:58:23;8.70;79.00
19039;DHT22;9652;49.014;12.052;2023-12-20T04:00:50;8.70;79.10
19039;DHT22;9652;49.014;12.052;2023-12-20T04:03:17;8.70;79.30
19039;DHT22;9652;49.014;12.052;2023-12-20T04:05:46;8.70;79.60
19039;DHT22;9652;49.014;12.052;2023-12-20T04:08:13;8.60;79.70
19039;DHT22;9652;49.014;12.052;2023-12-20T04:10:40;8.60;79.80
19039;DHT22;9652;49.014;12.052;2023-12-20T04:13:07;8.60;80.00
19039;DHT22;9652;49.014;12.052;2023-12-20T04:15:34;8.60;80.10
19039;DHT22;9652;49.014;12.052;2023-12-20T04:18:01;8.60;80.30
19039;DHT22;9652;49.014;12.052;2023-12-20T04:20:28;8.60;80.50
19039;DHT22;9652;49.014;12.052;2023-12-20T04:22:57;8.60;80.60
19039;DHT22;9652;49.014;12.052;2023-12-20T04:25:24;8.60;80.60
19039;DHT22;9652;49.014;12.052;2023-12-20T04:27:52;8.60;80.80
19039;DHT22;9652;49.014;12.052;2023-12-20T04:30:19;8.60;80.80
19039;DHT22;9652;49.014;12.052;2023-12-20T04:32:46;8.60;81.00
19039;DHT22;9652;49.014;12.052;2023-12-20T04:35:13;8.60;81.10
19039;DHT22;9652;49.014;12.052;2023-12-20T04:37:40;8.60;81.30
19039;DHT22;9652;49.014;12.052;2023-12-20T04:40:09;8.60;81.50
19039;DHT22;9652;49.014;12.052;2023-12-20T04:42:37;8.60;81.60
19039;DHT22;9652;49.014;12.052;2023-12-20T04:45:05;8.60;81.70
19039;DHT22;9652;49.014;12.052;2023-12-20T04:47:32;8.60;81.80
19039;DHT22;9652;49.014;12.052;2023-12-20T04:49:59;8.60;81.90
19039;DHT22;9652;49.014;12.052;2023-12-20T04:52:27;8.60;82.00
19039;DHT22;9652;49.014;12.052;2023-12-20T04:54:54;8.60;82.20
19039;DHT22;9652;49.014;12.052;2023-12-20T04:57:23;8.60;82.30
19039;DHT22;9652;49.014;12.052;2023-12-20T04:59:50;8.60;82.50
19039;DHT22;9652;49.014;12.052;2023-12-20T05:02:17;8.60;82.40
19039;DHT22;9652;49.014;12.052;2023-12-20T05:04:44;8.60;82.50
19039;DHT22;9652;49.014;12.052;2023-12-20T05:07:11;8.60;82.50
19039;DHT22;9652;49.014;12.052;2023-12-20T05:09:38;8.60;82.50
19039;DHT22;9652;49.014;12.052;2023-12-20T05:12:06;8.70;82.50
19039;DHT22;9652;49.014;12.052;2023-12-20T05:14:36;8.60;82.50
19039;DHT22;9652;49.014;12.052;2023-12-20T05:17:03;8.60;82.50
19039;DHT22;9652;49.014;12.052;2023-12-20T05:19:30;8.60;82.50
19039;DHT22;9652;49.014;12.052;2023-12-20T05:22:00;8.60;82.50
19039;DHT22;9652;49.014;12.052;2023-12-20T05:24:27;8.60;82.70
19039;DHT22;9652;49.014;12.052;2023-12-20T05:26:55;8.60;82.80
19039;DHT22;9652;49.014;12.052;2023-12-20T05:29:22;8.60;82.90
19039;DHT22;9652;49.014;12.052;2023-12-20T05:31:50;8.60;83.00
19039;DHT22;9652;49.014;12.052;2023-12-20T05:34:17;8.60;83.10
19039;DHT22;9652;49.014;12.052;2023-12-20T05:36:45;8.60;83.10
19039;DHT22;9652;49.014;12.052;2023-12-20T05:39:12;8.60;83.20
19039;DHT22;9652;49.014;12.052;2023-12-20T05:41:39;8.60;83.20
19039;DHT22;9652;49.014;12.052;2023-12-20T05:44:06;8.70;83.30
19039;DHT22;9652;49.014;12.052;2023-12-20T05:46:33;8.70;83.40
19039;DHT22;9652;49.014;12.052;2023-12-20T05:49:01;8.70;83.40
19039;DHT22;9652;49.014;12.052;2023-12-20T05:51:28;8.70;83.40
19039;DHT22;9652;49.014;12.052;2023-12-20T05:53:55;8.70;83.40
19039;DHT22;9652;49.014;12.052;2023-12-20T05:56:22;8.70;83.40
19039;DHT22;9652;49.014;12.052;2023-12-20T05:58:49;8.70;83.40
19039;DHT22;9652;49.014;12.052;2023-12-20T06:01:16;8.70;83.50
19039;DHT22;9652;49.014;12.052;2023-12-20T06:03:44;8.70;83.50
19039;DHT22;9652;49.014;12.052;2023-12-20T06:06:12;8.70;83.50
19039;DHT22;9652;49.014;12.052;2023-12-20T06:08:40;8.70;83.50
19039;DHT22;9652;49.014;12.052;2023-12-20T06:11:09;8.70;83.40
19039;DHT22;9652;49.014;12.052;2023-12-20T06:13:36;8.70;83.50
19039;DHT22;9652;49.014;12.052;2023-12-20T06:16:04;8.70;83.50
19039;DHT22;9652;49.014;12.052;2023-12-20T06:18:32;8.80;83.60
19039;DHT22;9652;49.014;12.052;2023-12-20T06:20:59;8.70;83.50
19039;DHT22;9652;49.014;12.052;2023-12-20T06:23:28;8.70;83.50
19039;DHT22;9652;49.014;12.052;2023-12-20T06:25:55;8.80;83.50
19039;DHT22;9652;49.014;12.052;2023-12-20T06:28:22;8.80;83.50
19039;DHT22;9652;49.014;12.052;2023-12-20T06:30:49;8.70;83.40
19039;DHT22;9652;49.014;12.052;2023-12-20T06:33:17;8.80;83.50
19039;DHT22;9652;49.014;12.052;2023-12-20T06:35:47;8.70;83.50
19039;DHT22;9652;49.014;12.052;2023-12-20T06:38:14;8.70;83.60
19039;DHT22;9652;49.014;12.052;2023-12-20T06:40:42;8.70;83.50
19039;DHT22;9652;49.014;12.052;2023-12-20T06:43:10;8.70;83.50
19039;DHT22;9652;49.014;12.052;2023-12-20T06:45:37;8.70;83.60
19039;DHT22;9652;49.014;12.052;2023-12-20T06:48:05;8.70;83.50
19039;DHT22;9652;49.014;12.052;2023-12-20T06:50:32;8.70;83.50
19039;DHT22;9652;49.014;12.052;2023-12-20T06:52:59;8.70;83.50
19039;DHT22;9652;49.014;12.052;2023-12-20T06:55:32;8.70;83.70
19039;DHT22;9652;49.014;12.052;2023-12-20T06:58:01;8.70;83.50
19039;DHT22;9652;49.014;12.052;2023-12-20T07:00:28;8.70;83.50
19039;DHT22;9652;49.014;12.052;2023-12-20T07:02:55;8.70;83.40
19039;DHT22;9652;49.014;12.052;2023-12-20T07:05:22;8.70;83.30
19039;DHT22;9652;49.014;12.052;2023-12-20T07:07:49;8.70;83.30
19039;DHT22;9652;49.014;12.052;2023-12-20T07:10:16;8.70;83.30
19039;DHT22;9652;49.014;12.052;2023-12-20T07:12:43;8.70;83.40
19039;DHT22;9652;49.014;12.052;2023-12-20T07:15:12;8.70;83.40
19039;DHT22;9652;49.014;12.052;2023-12-20T07:17:39;8.60;83.40
19039;DHT22;9652;49.014;12.052;2023-12-20T07:20:07;8.60;83.40
19039;DHT22;9652;49.014;12.052;2023-12-20T07:22:36;8.60;83.30
19039;DHT22;9652;49.014;12.052;2023-12-20T07:25:04;8.70;83.50
19039;DHT22;9652;49.014;12.052;2023-12-20T07:27:32;8.60;83.40
19039;DHT22;9652;49.014;12.052;2023-12-20T07:29:59;8.60;83.30
19039;DHT22;9652;49.014;12.052;2023-12-20T07:32:27;8.80;83.40
19039;DHT22;9652;49.014;12.052;2023-12-20T07:34:55;8.70;83.30
19039;DHT22;9652;49.014;12.052;2023-12-20T07:37:22;8.70;83.30
19039;DHT22;9652;49.014;12.052;2023-12-20T07:39:49;8.70;83.20
19039;DHT22;9652;49.014;12.052;2023-12-20T07:42:17;8.60;83.20
19039;DHT22;9652;49.014;12.052;2023-12-20T07:44:44;8.70;83.20
19039;DHT22;9652;49.014;12.052;2023-12-20T07:47:12;8.70;83.30
19039;DHT22;9652;49.014;12.052;2023-12-20T07:49:43;8.70;83.30
19039;DHT22;9652;49.014;12.052;2023-12-20T07:52:10;8.70;83.30
19039;DHT22;9652;49.014;12.052;2023-12-20T07:54:38;8.70;83.30
19039;DHT22;9652;49.014;12.052;2023-12-20T07:57:05;8.70;83.10
19039;DHT22;9652;49.014;12.052;2023-12-20T07:59:32;8.70;83.10
19039;DHT22;9652;49.014;12.052;2023-12-20T08:01:59;8.70;83.10
19039;DHT22;9652;49.014;12.052;2023-12-20T08:04:26;8.70;83.20
19039;DHT22;9652;49.014;12.052;2023-12-20T08:06:55;8.70;83.20
19039;DHT22;9652;49.014;12.052;2023-12-20T08:09:22;8.70;83.20
19039;DHT22;9652;49.014;12.052;2023-12-20T08:11:49;8.70;83.10
19039;DHT22;9652;49.014;12.052;2023-12-20T08:14:16;8.70;83.20
19039;DHT22;9652;49.014;12.052;2023-12-20T08:16:43;8.70;83.20
19039;DHT22;9652;49.014;12.052;2023-12-20T08:19:10;8.70;83.30
19039;DHT22;9652;49.014;12.052;2023-12-20T08:21:37;8.80;83.30
19039;DHT22;9652;49.014;12.052;2023-12-20T08:24:08;8.80;83.30
19039;DHT22;9652;49.014;12.052;2023-12-20T08:26:35;8.80;83.30
19039;DHT22;9652;49.014;12.052;2023-12-20T08:29:02;8.80;83.30
19039;DHT22;9652;49.014;12.052;2023-12-20T08:31:29;8.90;83.40
19039;DHT22;9652;49.014;12.052;2023-12-20T08:33:56;8.90;83.30
19039;DHT22;9652;49.014;12.052;2023-12-20T08:36:23;8.90;83.30
19039;DHT22;9652;49.014;12.052;2023-12-20T08:38:49;8.90;83.40
19039;DHT22;9652;49.014;12.052;2023-12-20T08:41:18;9.00;83.40
19039;DHT22;9652;49.014;12.052;2023-12-20T08:43:46;9.00;83.50
19039;DHT22;9652;49.014;12.052;2023-12-20T08:46:14;9.00;83.40
19039;DHT22;9652;49.014;12.052;2023-12-20T08:48:41;9.00;83.30
19039;DHT22;9652;49.014;12.052;2023-12-20T08:51:08;9.00;83.30
19039;DHT22;9652;49.014;12.052;2023-12-20T08:53:37;9.10;83.40
19039;DHT22;9652;49.014;12.052;2023-12-20T08:56:04;9.00;83.40
19039;DHT22;9652;49.014;12.052;2023-12-20T08:58:32;9.10;83.40
19039;DHT22;9652;49.014;12.052;2023-12-20T09:01:01;9.10;83.50
19039;DHT22;9652;49.014;12.052;2023-12-20T09:03:28;9.10;83.40
19039;DHT22;9652;49.014;12.052;2023-12-20T09:05:55;9.20;83.60
19039;DHT22;9652;49.014;12.052;2023-12-20T09:08:21;9.20;83.60
19039;DHT22;9652;49.014;12.052;2023-12-20T09:10:48;9.20;83.60
19039;DHT22;9652;49.014;12.052;2023-12-20T09:13:15;9.20;83.40
19039;DHT22;9652;49.014;12.052;2023-12-20T09:15:44;9.30;83.60
19039;DHT22;9652;49.014;12.052;2023-12-20T09:18:11;9.30;83.50
19039;DHT22;9652;49.014;12.052;2023-12-20T09:20:38;9.30;83.60
19039;DHT22;9652;49.014;12.052;2023-12-20T09:23:05;9.30;83.60
19039;DHT22;9652;49.014;12.052;2023-12-20T09:25:32;9.40;83.60
19039;DHT22;9652;49.014;12.052;2023-12-20T09:27:59;9.40;83.40
19039;DHT22;9652;49.014;12.052;2023-12-20T09:30:26;9.40;83.30
19039;DHT22;9652;49.014;12.052;2023-12-20T09:32:56;9.40;83.30
19039;DHT22;9652;49.014;12.052;2023-12-20T09:35:23;9.40;83.40
19039;DHT22;9652;49.014;12.052;2023-12-20T09:37:51;9.40;83.40
19039;DHT22;9652;49.014;12.052;2023-12-20T09:40:19;9.50;83.40
19039;DHT22;9652;49.014;12.052;2023-12-20T09:42:48;9.50;83.30
19039;DHT22;9652;49.014;12.052;2023-12-20T09:45:22;9.50;83.30
19039;DHT22;9652;49.014;12.052;2023-12-20T09:47:50;9.60;83.50
19039;DHT22;9652;49.014;12.052;2023-12-20T09:50:21;9.60;83.80
19039;DHT22;9652;49.014;12.052;2023-12-20T09:52:50;9.60;83.80
19039;DHT22;9652;49.014;12.052;2023-12-20T09:55:19;9.70;83.70
19039;DHT22;9652;49.014;12.052;2023-12-20T09:57:48;9.90;83.60
19039;DHT22;9652;49.014;12.052;2023-12-20T10:00:16;9.80;83.50
19039;DHT22;9652;49.014;12.052;2023-12-20T10:02:50;9.80;83.30
19039;DHT22;9652;49.014;12.052;2023-12-20T10:05:27;9.80;83.10
19039;DHT22;9652;49.014;12.052;2023-12-20T10:07:55;9.90;83.10
19039;DHT22;9652;49.014;12.052;2023-12-20T10:10:22;9.90;83.20
19039;DHT22;9652;49.014;12.052;2023-12-20T10:13:04;10.00;83.30
19039;DHT22;9652;49.014;12.052;2023-12-20T10:15:32;10.00;83.00
19039;DHT22;9652;49.014;12.052;2023-12-20T10:18:00;10.00;82.80
19039;DHT22;9652;49.014;12.052;2023-12-20T10:20:28;10.10;82.60
19039;DHT22;9652;49.014;12.052;2023-12-20T10:22:57;10.10;82.80
19039;DHT22;9652;49.014;12.052;2023-12-20T10:25:25;10.20;83.00
19039;DHT22;9652;49.014;12.052;2023-12-20T10:28:10;10.30;82.70
19039;DHT22;9652;49.014;12.052;2023-12-20T10:30:38;10.30;82.40
19039;DHT22;9652;49.014;12.052;2023-12-20T10:33:07;10.40;83.20
19039;DHT22;9652;49.014;12.052;2023-12-20T10:35:35;10.50;83.30
19039;DHT22;9652;49.014;12.052;2023-12-20T10:38:05;10.60;83.10
19039;DHT22;9652;49.014;12.052;2023-12-20T10:40:34;10.70;82.60
19039;DHT22;9652;49.014;12.052;2023-12-20T10:43:04;10.70;81.60
19039;DHT22;9652;49.014;12.052;2023-12-20T10:45:31;10.80;81.00
19039;DHT22;9652;49.014;12.052;2023-12-20T10:47:59;10.80;80.50
19039;DHT22;9652;49.014;12.052;2023-12-20T10:50:28;10.80;80.40
19039;DHT22;9652;49.014;12.052;2023-12-20T10:52:58;10.80;80.30
19039;DHT22;9652;49.014;12.052;2023-12-20T10:55:25;10.80;80.50
19039;DHT22;9652;49.014;12.052;2023-12-20T10:57:56;10.80;80.80
19039;DHT22;9652;49.014;12.052;2023-12-20T11:00:28;10.80;81.00
19039;DHT22;9652;49.014;12.052;2023-12-20T11:03:00;10.80;80.80
19039;DHT22;9652;49.014;12.052;2023-12-20T11:05:36;10.90;80.70
19039;DHT22;9652;49.014;12.052;2023-12-20T11:08:12;10.90;79.90
19039;DHT22;9652;49.014;12.052;2023-12-20T11:10:49;11.00;79.90
19039;DHT22;9652;49.014;12.052;2023-12-20T11:13:26;10.90;79.30
19039;DHT22;9652;49.014;12.052;2023-12-20T11:15:57;10.90;79.00
19039;DHT22;9652;49.014;12.052;2023-12-20T11:18:28;10.90;78.20
19039;DHT22;9652;49.014;12.052;2023-12-20T11:21:00;10.90;78.50
19039;DHT22;9652;49.014;12.052;2023-12-20T11:23:32;11.00;77.70
19039;DHT22;9652;49.014;12.052;2023-12-20T11:26:00;10.80;77.60
19039;DHT22;9652;49.014;12.052;2023-12-20T11:28:29;10.80;77.70
19039;DHT22;9652;49.014;12.052;2023-12-20T11:30:57;10.80;77.60
19039;DHT22;9652;49.014;12.052;2023-12-20T11:33:26;10.80;77.50
19039;DHT22;9652;49.014;12.052;2023-12-20T11:35:57;10.80;77.30
19039;DHT22;9652;49.014;12.052;2023-12-20T11:38:25;10.80;77.00
19039;DHT22;9652;49.014;12.052;2023-12-20T11:40:55;10.80;77.20
19039;DHT22;9652;49.014;12.052;2023-12-20T11:43:30;10.70;76.60
19039;DHT22;9652;49.014;12.052;2023-12-20T11:46:03;10.70;75.60
19039;DHT22;9652;49.014;12.052;2023-12-20T11:48:31;10.70;75.80
19039;DHT22;9652;49.014;12.052;2023-12-20T11:50:59;10.70;76.10
19039;DHT22;9652;49.014;12.052;2023-12-20T11:53:26;10.70;76.00
19039;DHT22;9652;49.014;12.052;2023-12-20T11:55:55;10.80;76.30
19039;DHT22;9652;49.014;12.052;2023-12-20T11:58:22;10.70;76.60
19039;DHT22;9652;49.014;12.052;2023-12-20T12:00:49;10.80;76.70
19039;DHT22;9652;49.014;12.052;2023-12-20T12:03:17;10.90;76.30
19039;DHT22;9652;49.014;12.052;2023-12-20T12:05:47;10.90;76.30
19039;DHT22;9652;49.014;12.052;2023-12-20T12:08:14;10.90;75.80
19039;DHT22;9652;49.014;12.052;2023-12-20T12:10:41;11.00;76.00
19039;DHT22;9652;49.014;12.052;2023-12-20T12:13:09;10.90;76.20
19039;DHT22;9652;49.014;12.052;2023-12-20T12:15:37;11.00;75.80
19039;DHT22;9652;49.014;12.052;2023-12-20T12:18:05;11.10;75.80
19039;DHT22;9652;49.014;12.052;2023-12-20T12:20:32;11.00;75.40
19039;DHT22;9652;49.014;12.052;2023-12-20T12:23:01;11.10;74.90
19039;DHT22;9652;49.014;12.052;2023-12-20T12:25:29;11.10;74.80
19039;DHT22;9652;49.014;12.052;2023-12-20T12:27:58;11.10;74.80
19039;DHT22;9652;49.014;12.052;2023-12-20T12:30:27;11.00;74.40
19039;DHT22;9652;49.014;12.052;2023-12-20T12:32:55;11.00;74.10
19039;DHT22;9652;49.014;12.052;2023-12-20T12:35:23;11.00;74.30
19039;DHT22;9652;49.014;12.052;2023-12-20T12:37:51;10.90;74.20
19039;DHT22;9652;49.014;12.052;2023-12-20T12:40:18;10.90;74.10
19039;DHT22;9652;49.014;12.052;2023-12-20T12:42:45;10.90;73.80
19039;DHT22;9652;49.014;12.052;2023-12-20T12:45:13;10.90;73.70
19039;DHT22;9652;49.014;12.052;2023-12-20T12:47:42;10.90;74.00
19039;DHT22;9652;49.014;12.052;2023-12-20T12:50:09;10.90;74.40
19039;DHT22;9652;49.014;12.052;2023-12-20T12:52:36;10.90;73.30
19039;DHT22;9652;49.014;12.052;2023-12-20T12:55:04;10.90;73.40
19039;DHT22;9652;49.014;12.052;2023-12-20T12:57:32;10.90;73.40
19039;DHT22;9652;49.014;12.052;2023-12-20T13:00:00;11.00;73.50
19039;DHT22;9652;49.014;12.052;2023-12-20T13:02:28;10.90;74.30
19039;DHT22;9652;49.014;12.052;2023-12-20T13:04:57;10.90;73.30
19039;DHT22;9652;49.014;12.052;2023-12-20T13:07:26;10.90;72.90
19039;DHT22;9652;49.014;12.052;2023-12-20T13:09:53;10.90;72.90
19039;DHT22;9652;49.014;12.052;2023-12-20T13:12:20;10.80;73.10
19039;DHT22;9652;49.014;12.052;2023-12-20T13:14:47;10.80;73.00
19039;DHT22;9652;49.014;12.052;2023-12-20T13:17:14;10.80;72.80
19039;DHT22;9652;49.014;12.052;2023-12-20T13:19:42;10.80;72.50
19039;DHT22;9652;49.014;12.052;2023-12-20T13:22:10;10.70;72.90
19039;DHT22;9652;49.014;12.052;2023-12-20T13:24:37;10.70;72.90
19039;DHT22;9652;49.014;12.052;2023-12-20T13:27:04;10.70;73.20
19039;DHT22;9652;49.014;12.052;2023-12-20T13:29:31;10.70;73.10
19039;DHT22;9652;49.014;12.052;2023-12-20T13:31:58;10.70;73.10
19039;DHT22;9652;49.014;12.052;2023-12-20T13:34:25;10.70;73.30
19039;DHT22;9652;49.014;12.052;2023-12-20T13:36:53;10.70;73.40
19039;DHT22;9652;49.014;12.052;2023-12-20T13:39:21;10.70;73.60
19039;DHT22;9652;49.014;12.052;2023-12-20T13:41:49;10.70;73.60
19039;DHT22;9652;49.014;12.052;2023-12-20T13:44:16;10.80;73.80
19039;DHT22;9652;49.014;12.052;2023-12-20T13:46:43;10.80;73.40
19039;DHT22;9652;49.014;12.052;2023-12-20T13:49:11;10.80;73.60
19039;DHT22;9652;49.014;12.052;2023-12-20T13:51:38;10.80;73.40
19039;DHT22;9652;49.014;12.052;2023-12-20T13:54:05;10.80;73.40
19039;DHT22;9652;49.014;12.052;2023-12-20T13:56:34;10.80;73.30
19039;DHT22;9652;49.014;12.052;2023-12-20T13:59:01;10.80;73.10
19039;DHT22;9652;49.014;12.052;2023-12-20T14:01:28;10.80;72.90
19039;DHT22;9652;49.014;12.052;2023-12-20T14:03:55;10.80;72.70
19039;DHT22;9652;49.014;12.052;2023-12-20T14:06:22;10.80;72.20
19039;DHT22;9652;49.014;12.052;2023-12-20T14:08:49;10.70;71.70
19039;DHT22;9652;49.014;12.052;2023-12-20T14:11:16;10.70;71.90
19039;DHT22;9652;49.014;12.052;2023-12-20T14:13:45;10.70;72.10
19039;DHT22;9652;49.014;12.052;2023-12-20T14:16:13;10.60;71.70
19039;DHT22;9652;49.014;12.052;2023-12-20T14:18:40;10.60;71.70
19039;DHT22;9652;49.014;12.052;2023-12-20T14:21:08;10.50;71.60
19039;DHT22;9652;49.014;12.052;2023-12-20T14:23:35;10.60;71.60
19039;DHT22;9652;49.014;12.052;2023-12-20T14:26:03;10.40;71.30
19039;DHT22;9652;49.014;12.052;2023-12-20T14:28:30;10.30;71.50
19039;DHT22;9652;49.014;12.052;2023-12-20T14:30:58;10.20;71.60
19039;DHT22;9652;49.014;12.052;2023-12-20T14:33:25;10.20;72.00
19039;DHT22;9652;49.014;12.052;2023-12-20T14:35:52;10.10;72.00
19039;DHT22;9652;49.014;12.052;2023-12-20T14:38:19;10.10;72.10
19039;DHT22;9652;49.014;12.052;2023-12-20T14:40:46;10.10;72.30
19039;DHT22;9652;49.014;12.052;2023-12-20T14:43:13;10.00;72.50
19039;DHT22;9652;49.014;12.052;2023-12-20T14:45:42;10.00;72.70
19039;DHT22;9652;49.014;12.052;2023-12-20T14:48:10;10.00;72.50
19039;DHT22;9652;49.014;12.052;2023-12-20T14:50:37;10.00;72.50
19039;DHT22;9652;49.014;12.052;2023-12-20T14:53:06;10.00;72.50
19039;DHT22;9652;49.014;12.052;2023-12-20T14:55:33;9.90;72.70
19039;DHT22;9652;49.014;12.052;2023-12-20T14:58:00;9.90;72.50
19039;DHT22;9652;49.014;12.052;2023-12-20T15:00:28;9.90;72.30
19039;DHT22;9652;49.014;12.052;2023-12-20T15:02:55;9.90;72.60
19039;DHT22;9652;49.014;12.052;2023-12-20T15:05:23;9.90;72.70
19039;DHT22;9652;49.014;12.052;2023-12-20T15:07:52;9.80;72.50
19039;DHT22;9652;49.014;12.052;2023-12-20T15:10:19;9.80;72.60
19039;DHT22;9652;49.014;12.052;2023-12-20T15:12:46;9.70;72.40
19039;DHT22;9652;49.014;12.052;2023-12-20T15:15:13;9.80;72.50
19039;DHT22;9652;49.014;12.052;2023-12-20T15:17:41;9.70;72.30
19039;DHT22;9652;49.014;12.052;2023-12-20T15:20:09;9.60;71.90
19039;DHT22;9652;49.014;12.052;2023-12-20T15:22:38;9.60;71.60
19039;DHT22;9652;49.014;12.052;2023-12-20T15:25:07;9.50;71.40
19039;DHT22;9652;49.014;12.052;2023-12-20T15:27:34;9.40;71.20
19039;DHT22;9652;49.014;12.052;2023-12-20T15:30:04;9.40;71.20
19039;DHT22;9652;49.014;12.052;2023-12-20T15:32:32;9.30;71.30
19039;DHT22;9652;49.014;12.052;2023-12-20T15:35:02;9.20;71.40
19039;DHT22;9652;49.014;12.052;2023-12-20T15:37:30;9.10;71.70
19039;DHT22;9652;49.014;12.052;2023-12-20T15:39:58;9.10;72.10
19039;DHT22;9652;49.014;12.052;2023-12-20T15:42:25;9.10;72.30
19039;DHT22;9652;49.014;12.052;2023-12-20T15:44:52;9.00;72.60
19039;DHT22;9652;49.014;12.052;2023-12-20T15:47:19;8.90;72.70